createdAt,value
2022-08-12T00:03:20.765Z,20.51
2022-08-12T00:06:42.591Z,20.46
2022-08-12T00:10:02.963Z,20.42
2022-08-12T00:13:24.043Z,20.37
2022-08-12T00:16:45.899Z,20.31
2022-08-12T00:20:07.689Z,20.24
2022-08-12T00:23:28.094Z,20.16
2022-08-12T00:26:48.321Z,20.07
2022-08-12T00:30:09.354Z,20.09
2022-08-12T00:33:38.613Z,20.10
2022-08-12T00:37:13.439Z,20.07
2022-08-12T00:40:34.608Z,20.06
2022-08-12T00:43:38.330Z,19.97
2022-08-12T00:46:50.635Z,19.93
2022-08-12T00:49:55.280Z,20.03
2022-08-12T00:53:01.394Z,19.97
2022-08-12T00:56:05.932Z,19.97
2022-08-12T00:59:10.152Z,20.03
2022-08-12T01:02:17.399Z,20.06
2022-08-12T01:05:39.896Z,20.08
2022-08-12T01:09:01.458Z,20.06
2022-08-12T01:12:06.525Z,20.05
2022-08-12T01:15:12.980Z,20.05
2022-08-12T01:18:16.785Z,20.02
2022-08-12T01:21:42.633Z,20.06
2022-08-12T01:24:56.903Z,20.03
2022-08-12T01:28:01.979Z,20.00
2022-08-12T01:31:06.870Z,20.00
2022-08-12T01:34:36.030Z,19.92
2022-08-12T01:37:38.227Z,19.87
2022-08-12T01:40:47.981Z,19.88
2022-08-12T01:43:53.329Z,19.80
2022-08-12T01:47:06.727Z,19.75
2022-08-12T01:50:22.112Z,19.74
2022-08-12T01:53:27.487Z,19.72
2022-08-12T01:56:39.861Z,19.61
2022-08-12T01:59:47.392Z,19.58
2022-08-12T02:02:58.858Z,19.48
2022-08-12T02:06:28.579Z,19.41
2022-08-12T02:10:05.877Z,19.39
2022-08-12T02:13:42.070Z,19.34
2022-08-12T02:16:55.265Z,19.24
2022-08-12T02:20:11.110Z,19.20
2022-08-12T02:23:15.390Z,19.11
2022-08-12T02:26:19.374Z,19.04
2022-08-12T02:29:24.041Z,18.98
2022-08-12T02:32:27.579Z,18.90
2022-08-12T02:35:32.865Z,18.82
2022-08-12T02:38:37.148Z,18.80
2022-08-12T02:41:44.880Z,18.79
2022-08-12T02:44:54.050Z,18.70
2022-08-12T02:48:06.466Z,18.68
2022-08-12T02:51:13.018Z,18.67
2022-08-12T02:54:15.843Z,18.65
2022-08-12T02:57:20.846Z,18.64
2022-08-12T03:00:26.850Z,18.62
2022-08-12T03:03:32.950Z,18.58
2022-08-12T03:06:44.668Z,18.55
2022-08-12T03:10:04.218Z,18.51
2022-08-12T03:13:09.517Z,18.44
2022-08-12T03:16:14.641Z,18.45
2022-08-12T03:19:21.293Z,18.45
2022-08-12T03:22:25.061Z,18.38
2022-08-12T03:25:27.892Z,18.32
2022-08-12T03:28:50.535Z,18.28
2022-08-12T03:32:00.887Z,18.24
2022-08-12T03:35:07.886Z,18.25
2022-08-12T03:38:16.116Z,18.14
2022-08-12T03:41:35.681Z,18.16
2022-08-12T03:44:59.315Z,18.14
2022-08-12T03:48:25.854Z,18.15
2022-08-12T03:51:46.164Z,18.12
2022-08-12T03:55:06.806Z,18.07
2022-08-12T03:58:28.121Z,18.10
2022-08-12T04:01:31.817Z,18.14
2022-08-12T04:04:47.256Z,18.06
2022-08-12T04:07:57.856Z,18.08
2022-08-12T04:11:18.605Z,18.08
2022-08-12T04:14:22.933Z,18.07
2022-08-12T04:17:28.329Z,18.09
2022-08-12T04:20:33.318Z,18.11
2022-08-12T04:23:38.319Z,18.08
2022-08-12T04:26:40.952Z,18.13
2022-08-12T04:30:29.242Z,18.18
2022-08-12T04:33:10.101Z,18.15
2022-08-12T04:36:14.359Z,18.22
2022-08-12T04:39:18.728Z,18.38
2022-08-12T04:42:21.832Z,18.64
2022-08-12T04:45:24.921Z,19.04
2022-08-12T04:48:27.706Z,19.41
2022-08-12T04:51:33.224Z,19.89
2022-08-12T04:54:36.673Z,20.33
2022-08-12T04:57:39.677Z,20.81
2022-08-12T05:00:42.485Z,21.19
2022-08-12T05:03:46.275Z,21.61
2022-08-12T05:06:51.407Z,22.08
2022-08-12T05:09:59.829Z,22.38
2022-08-12T05:13:18.868Z,22.86
2022-08-12T05:16:29.973Z,23.14
2022-08-12T05:19:35.694Z,23.69
2022-08-12T05:22:41.491Z,24.12
2022-08-12T05:25:46.547Z,24.55
2022-08-12T05:28:49.981Z,24.84
2022-08-12T05:31:57.056Z,25.16
2022-08-12T05:34:59.679Z,25.43
2022-08-12T05:38:17.831Z,25.67
2022-08-12T05:41:20.839Z,25.82
2022-08-12T05:44:23.807Z,25.76
2022-08-12T05:47:48.725Z,25.66
2022-08-12T05:50:52.705Z,25.76
2022-08-12T05:53:58.563Z,25.86
2022-08-12T05:57:02.349Z,26.05
2022-08-12T06:00:07.166Z,26.22
2022-08-12T06:03:10.067Z,26.38
2022-08-12T06:06:13.116Z,26.74
2022-08-12T06:09:17.156Z,27.00
2022-08-12T06:12:23.603Z,27.10
2022-08-12T06:15:26.605Z,27.15
2022-08-12T06:18:31.068Z,27.31
2022-08-12T06:21:34.866Z,27.43
2022-08-12T06:24:38.885Z,27.72
2022-08-12T06:28:06.202Z,28.17
2022-08-12T06:31:25.436Z,28.64
2022-08-12T06:35:23.977Z,28.93
2022-08-12T06:37:58.884Z,29.43
2022-08-12T06:41:21.140Z,29.84
2022-08-12T06:44:23.814Z,30.31
2022-08-12T06:47:26.648Z,30.41
2022-08-12T06:50:31.035Z,30.81
2022-08-12T06:53:37.376Z,30.98
2022-08-12T07:00:05.124Z,31.45
2022-08-12T07:03:22.710Z,31.81
2022-08-12T07:06:26.838Z,32.05
2022-08-12T07:10:01.422Z,32.30
2022-08-12T07:12:55.886Z,32.39
2022-08-12T07:15:58.698Z,32.38
2022-08-12T07:19:02.038Z,32.54
2022-08-12T07:22:06.492Z,32.93
2022-08-12T07:25:27.895Z,32.91
2022-08-12T07:28:35.373Z,33.34
2022-08-12T07:31:38.890Z,33.64
2022-08-12T07:34:43.222Z,33.67
2022-08-12T07:37:49.545Z,33.67
2022-08-12T07:40:54.633Z,33.50
2022-08-12T07:44:04.643Z,33.57
2022-08-12T07:47:08.334Z,33.91
2022-08-12T07:50:23.431Z,34.17
2022-08-12T07:53:26.527Z,34.35
2022-08-12T07:56:31.223Z,34.47
2022-08-12T07:59:35.774Z,34.19
2022-08-12T08:02:38.876Z,34.25
2022-08-12T08:05:46.163Z,34.18
2022-08-12T08:08:48.930Z,34.18
2022-08-12T08:12:18.577Z,34.09
2022-08-12T08:15:51.123Z,33.79
2022-08-12T08:18:50.252Z,34.02
2022-08-12T08:21:55.053Z,34.15
2022-08-12T08:24:58.732Z,33.97
2022-08-12T08:28:03.242Z,33.98
2022-08-12T08:31:07.435Z,34.00
2022-08-12T08:34:27.716Z,33.76
2022-08-12T08:37:37.202Z,33.96
2022-08-12T08:41:00.093Z,33.94
2022-08-12T08:44:03.225Z,33.86
2022-08-12T08:47:07.659Z,34.16
2022-08-12T08:50:10.979Z,34.36
2022-08-12T08:53:13.811Z,34.79
2022-08-12T08:56:16.537Z,34.94
2022-08-12T09:05:11.707Z,34.91
2022-08-12T09:08:09.019Z,34.93
2022-08-12T09:12:07.243Z,35.42
2022-08-12T09:14:56.118Z,35.43
2022-08-12T09:18:26.661Z,35.25
2022-08-12T09:21:54.613Z,35.37
2022-08-12T09:25:01.352Z,35.33
2022-08-12T09:28:10.699Z,35.12
2022-08-12T09:32:06.748Z,34.53
2022-08-12T09:34:41.830Z,35.04
2022-08-12T09:37:58.120Z,35.11
2022-08-12T09:42:09.028Z,34.95
2022-08-12T09:44:45.227Z,34.75
2022-08-12T09:47:59.351Z,35.60
2022-08-12T09:51:02.978Z,35.12
2022-08-12T09:54:30.957Z,35.56
2022-08-12T09:58:50.927Z,35.57
2022-08-12T10:00:54.878Z,35.58
2022-08-12T10:04:04.376Z,35.78
2022-08-12T10:07:23.039Z,36.00
2022-08-12T10:10:30.321Z,36.13
2022-08-12T10:13:44.880Z,35.52
2022-08-12T10:16:47.880Z,35.24
2022-08-12T10:19:53.097Z,35.60
2022-08-12T10:23:00.126Z,35.46
2022-08-12T10:26:36.960Z,35.93
2022-08-12T10:30:38.461Z,35.89
2022-08-12T10:33:18.053Z,35.79
2022-08-12T10:36:39.919Z,35.64
2022-08-12T10:40:01.575Z,35.80
2022-08-12T10:43:24.751Z,35.98
2022-08-12T10:46:31.388Z,36.14
2022-08-12T10:50:03.520Z,36.30
2022-08-12T10:53:00.288Z,36.32
2022-08-12T10:56:03.065Z,36.55
2022-08-12T10:59:10.928Z,36.18
2022-08-12T11:04:27.267Z,36.28
2022-08-12T11:07:08.364Z,35.68
2022-08-12T11:09:02.405Z,35.63
2022-08-12T11:12:55.254Z,35.55
2022-08-12T11:16:19.635Z,35.63
2022-08-12T11:19:02.600Z,35.74
2022-08-12T11:22:06.150Z,35.99
2022-08-12T11:25:11.508Z,36.05
2022-08-12T11:28:15.897Z,35.72
2022-08-12T11:31:18.851Z,35.82
2022-08-12T11:34:53.025Z,35.84
2022-08-12T11:37:59.013Z,35.02
2022-08-12T11:41:04.083Z,34.54
2022-08-12T11:44:31.978Z,34.01
2022-08-12T11:47:29.810Z,34.27
2022-08-12T11:50:35.177Z,34.81
2022-08-12T11:53:58.341Z,35.24
2022-08-12T11:57:52.468Z,35.28
2022-08-12T12:03:49.242Z,34.88
2022-08-12T12:06:53.843Z,34.29
2022-08-12T12:09:56.975Z,33.44
2022-08-12T12:12:59.812Z,34.23
2022-08-12T12:16:02.658Z,34.24
2022-08-12T12:19:10.194Z,33.62
2022-08-12T12:22:15.700Z,34.05
2022-08-12T12:25:19.708Z,34.58
2022-08-12T12:28:37.035Z,34.27
2022-08-12T12:32:10.078Z,34.61
2022-08-12T12:35:14.271Z,34.94
2022-08-12T12:38:28.086Z,35.13
2022-08-12T12:42:55.549Z,35.03
2022-08-12T12:44:53.923Z,34.79
2022-08-12T12:47:58.509Z,34.34
2022-08-12T12:51:48.264Z,34.41
2022-08-12T12:54:52.673Z,34.53
2022-08-12T12:57:59.985Z,34.87
2022-08-12T13:01:04.499Z,34.59
2022-08-12T13:04:12.099Z,34.83
2022-08-12T13:07:16.235Z,34.11
2022-08-12T13:10:23.971Z,34.44
2022-08-12T13:14:10.013Z,34.15
2022-08-12T13:17:02.709Z,33.86
2022-08-12T13:20:07.833Z,34.03
2022-08-12T13:23:37.302Z,33.48
2022-08-12T13:26:35.211Z,33.17
2022-08-12T13:29:40.189Z,32.95
2022-08-12T13:32:57.088Z,33.17
2022-08-12T13:36:07.135Z,32.78
2022-08-12T13:39:12.870Z,32.47
2022-08-12T13:42:22.763Z,32.21
2022-08-12T13:45:29.227Z,32.64
2022-08-12T13:48:32.013Z,32.67
2022-08-12T13:51:41.218Z,32.96
2022-08-12T13:54:44.229Z,32.87
2022-08-12T13:58:01.724Z,32.78
2022-08-12T14:01:06.110Z,32.25
2022-08-12T14:04:11.900Z,32.08
2022-08-12T14:07:14.873Z,31.83
2022-08-12T14:10:39.165Z,31.88
2022-08-12T14:14:03.305Z,31.69
2022-08-12T14:17:14.370Z,31.38
2022-08-12T14:20:23.286Z,30.84
2022-08-12T14:24:04.529Z,30.97
2022-08-12T14:26:55.049Z,31.21
2022-08-12T14:30:15.160Z,31.77
2022-08-12T14:33:20.273Z,32.07
2022-08-12T14:36:25.451Z,31.98
2022-08-12T14:39:28.956Z,31.97
2022-08-12T14:42:33.320Z,31.65
2022-08-12T14:45:49.054Z,31.57
2022-08-12T14:48:53.821Z,31.43
2022-08-12T14:52:44.211Z,31.37
2022-08-12T14:59:20.281Z,31.14
2022-08-12T15:02:25.874Z,30.75
2022-08-12T15:06:04.931Z,30.80
2022-08-12T15:08:52.454Z,30.71
2022-08-12T15:12:03.571Z,30.57
2022-08-12T15:15:08.847Z,30.57
2022-08-12T15:18:21.124Z,30.60
2022-08-12T15:21:25.350Z,30.69
2022-08-12T15:24:48.777Z,30.48
2022-08-12T15:28:03.936Z,30.69
2022-08-12T15:31:21.698Z,30.89
2022-08-12T15:34:33.257Z,31.11
2022-08-12T15:38:11.186Z,31.13
2022-08-12T15:41:00.703Z,31.00
2022-08-12T15:44:36.856Z,30.85
2022-08-12T15:47:27.052Z,30.76
2022-08-12T15:50:52.844Z,30.70
2022-08-12T15:54:33.544Z,30.80
2022-08-12T15:57:43.136Z,30.86
2022-08-12T16:00:53.378Z,30.91
2022-08-12T16:04:00.456Z,30.86
2022-08-12T16:07:08.857Z,30.92
2022-08-12T16:10:11.953Z,30.70
2022-08-12T16:13:32.221Z,30.67
2022-08-12T16:16:37.211Z,30.87
2022-08-12T16:20:05.318Z,30.78
2022-08-12T16:23:35.739Z,30.86
2022-08-12T16:26:36.721Z,30.64
2022-08-12T16:29:52.460Z,30.69
2022-08-12T16:32:57.129Z,30.54
2022-08-12T16:36:00.070Z,30.47
2022-08-12T16:39:05.980Z,30.59
2022-08-12T16:42:08.757Z,30.30
2022-08-12T16:45:14.062Z,30.26
2022-08-12T16:48:34.696Z,30.06
2022-08-12T16:51:41.776Z,30.12
2022-08-12T16:54:47.950Z,29.91
2022-08-12T16:57:52.025Z,29.99
2022-08-12T17:01:02.139Z,29.94
2022-08-12T17:04:08.396Z,29.90
2022-08-12T17:07:16.964Z,29.82
2022-08-12T17:10:36.490Z,29.83
2022-08-12T17:13:53.147Z,29.63
2022-08-12T17:16:58.376Z,29.59
2022-08-12T17:20:35.543Z,29.56
2022-08-12T17:23:48.071Z,29.56
2022-08-12T17:26:53.873Z,29.48
2022-08-12T17:30:00.944Z,29.29
2022-08-12T17:33:06.822Z,29.31
2022-08-12T17:36:10.477Z,29.17
2022-08-12T17:39:13.853Z,29.10
2022-08-12T17:42:32.784Z,29.04
2022-08-12T17:45:42.222Z,29.00
2022-08-12T17:48:55.182Z,28.89
2022-08-12T17:52:02.397Z,28.77
2022-08-12T17:55:40.454Z,28.70
2022-08-12T17:58:35.641Z,28.82
2022-08-12T18:01:45.376Z,28.70
2022-08-12T18:05:04.823Z,28.67
2022-08-12T18:08:11.205Z,28.54
2022-08-12T18:12:03.054Z,28.52
2022-08-12T18:15:00.371Z,28.38
2022-08-12T18:18:04.093Z,28.32
2022-08-12T18:21:08.575Z,28.33
2022-08-12T18:24:22.124Z,28.20
2022-08-12T18:27:30.812Z,28.09
2022-08-12T18:30:52.943Z,28.01
2022-08-12T18:34:00.902Z,27.93
2022-08-12T18:37:26.924Z,27.84
2022-08-12T18:40:46.179Z,27.68
2022-08-12T18:43:59.553Z,27.53
2022-08-12T18:47:10.486Z,27.36
2022-08-12T18:50:16.274Z,27.21
2022-08-12T18:53:31.013Z,27.08
2022-08-12T18:56:45.265Z,26.94
2022-08-12T19:00:00.784Z,26.83
2022-08-12T19:03:16.628Z,26.65
2022-08-12T19:06:38.306Z,26.45
2022-08-12T19:09:57.733Z,26.34
2022-08-12T19:13:24.182Z,26.22
2022-08-12T19:16:28.392Z,26.10
2022-08-12T19:19:38.858Z,26.02
2022-08-12T19:22:57.715Z,25.91
2022-08-12T19:26:03.030Z,25.74
2022-08-12T19:29:07.593Z,25.68
2022-08-12T19:32:13.799Z,25.63
2022-08-12T19:36:06.508Z,25.54
2022-08-12T19:38:56.301Z,25.36
2022-08-12T19:42:02.605Z,25.20
2022-08-12T19:45:12.411Z,25.16
2022-08-12T19:48:20.627Z,25.05
2022-08-12T19:51:33.521Z,25.04
2022-08-12T19:54:38.747Z,24.86
2022-08-12T19:58:01.590Z,24.82
2022-08-12T20:01:10.830Z,24.77
2022-08-12T20:04:14.423Z,24.69
2022-08-12T20:07:23.804Z,24.67
2022-08-12T20:10:35.521Z,24.62
2022-08-12T20:13:42.166Z,24.61
2022-08-12T20:16:51.141Z,24.55
2022-08-12T20:20:17.042Z,24.46
2022-08-12T20:23:37.197Z,24.40
2022-08-12T20:26:54.588Z,24.34
2022-08-12T20:29:59.531Z,24.32
2022-08-12T20:33:03.201Z,24.23
2022-08-12T20:36:40.281Z,24.15
2022-08-12T20:39:53.275Z,24.07
2022-08-12T20:42:56.616Z,24.06
2022-08-12T20:45:59.440Z,23.98
2022-08-12T20:49:14.815Z,23.91
2022-08-12T20:52:20.176Z,23.83
2022-08-12T20:55:43.044Z,23.80
2022-08-12T20:58:46.983Z,23.76
2022-08-12T21:01:54.228Z,23.72
2022-08-12T21:05:19.483Z,23.65
2022-08-12T21:08:26.736Z,23.54
2022-08-12T21:11:32.459Z,23.48
2022-08-12T21:14:39.700Z,23.46
2022-08-12T21:18:11.593Z,23.46
2022-08-12T21:21:46.996Z,23.50
2022-08-12T21:24:47.294Z,23.50
2022-08-12T21:27:59.242Z,23.56
2022-08-12T21:32:34.592Z,23.62
2022-08-12T21:34:29.587Z,23.68
2022-08-12T21:37:37.200Z,23.64
2022-08-12T21:40:52.062Z,23.60
2022-08-12T21:44:01.552Z,23.63
2022-08-12T21:47:12.113Z,23.62
2022-08-12T21:50:29.126Z,23.51
2022-08-12T21:54:06.726Z,23.48
2022-08-12T21:56:55.053Z,23.69
2022-08-12T21:59:59.132Z,23.71
2022-08-12T22:04:01.661Z,23.68
2022-08-12T22:07:07.843Z,23.83
2022-08-12T22:10:12.562Z,23.81
2022-08-12T22:14:07.659Z,23.81
2022-08-12T22:16:46.758Z,23.72
2022-08-12T22:19:49.983Z,23.67
2022-08-12T22:22:55.949Z,23.66
2022-08-12T22:25:59.680Z,23.60
2022-08-12T22:29:20.178Z,23.74
2022-08-12T22:32:26.408Z,23.59
2022-08-12T22:35:56.682Z,23.50
2022-08-12T22:38:59.884Z,23.41
2022-08-12T22:42:20.489Z,23.35
2022-08-12T22:45:48.184Z,23.35
2022-08-12T22:48:53.708Z,23.20
2022-08-12T22:52:00.819Z,23.16
2022-08-12T22:55:07.089Z,23.13
2022-08-12T22:58:12.555Z,23.15
2022-08-12T23:01:21.272Z,23.04
2022-08-12T23:04:40.703Z,22.90
2022-08-12T23:07:58.720Z,22.94
2022-08-12T23:11:04.733Z,22.83
2022-08-12T23:14:08.919Z,22.83
2022-08-12T23:17:21.146Z,22.90
2022-08-12T23:20:37.243Z,22.92
2022-08-12T23:24:09.127Z,22.78
2022-08-12T23:27:21.845Z,22.82
2022-08-12T23:30:32.272Z,22.70
2022-08-12T23:34:02.458Z,22.67
2022-08-12T23:37:02.051Z,22.66
2022-08-12T23:40:15.583Z,22.59
2022-08-12T23:43:20.902Z,22.69
2022-08-12T23:46:27.461Z,22.62
2022-08-12T23:49:57.735Z,22.57
2022-08-12T23:52:56.164Z,22.55
2022-08-12T23:55:59.538Z,22.53
2022-08-12T23:59:03.248Z,22.55
